Time;durP1;ratioP1;P1;durP2;ratioP2;P2;SDS_P1;SDS_P2;PMS_P1;PMS_P2;Temp;Humidity;BMP_temperature;BMP_pressure;BME280_temperature;BME280_humidity;BME280_pressure;Samples;Min_cycle;Max_cycle;Signal;HPM_P1;HPM_P2
2023/05/29 06:01:45;;;;;;;;;;;;;;;;;;5370263;23;19926;-85
2023/05/29 06:04:10;;;;;;;;;;;;;;;;;;5011466;28;19925;-83
2023/05/29 06:06:35;;;;;;;;;;;;;;;;;;5011862;28;20016;-83
2023/05/29 06:09:01;;;;;;;;;;;;;;;;;;5011728;28;20344;-83
2023/05/29 06:11:26;;;;;;;;;;;;;;;;;;5011344;28;19926;-83
2023/05/29 06:13:52;;;;;;;;;;;;;;;;;;5011538;28;20428;-83
2023/05/29 06:16:17;;;;;;;;;;;;;;;;;;5011433;28;19925;-83
2023/05/29 06:18:44;;;;;;;;;;;;;;;;;;5011128;28;19929;-83
2023/05/29 06:21:09;;;;;;;;;;;;;;;;;;5010833;28;20390;-82
2023/05/29 06:23:36;;;;;;;;;;;;;;;;;;5011703;28;19925;-83
2023/05/29 06:26:01;;;;;;;;;;;;;;;;;;5011487;28;20304;-84
2023/05/29 06:28:26;;;;;;;;;;;;;;;;;;5011086;28;19926;-83
2023/05/29 06:30:52;;;;;;;;;;;;;;;;;;5011185;28;20290;-83
2023/05/29 06:33:17;;;;;;;;;;;;;;;;;;5011007;28;19929;-84
2023/05/29 06:35:42;;;;;;;;;;;;;;;;;;5010962;28;19925;-83
2023/05/29 06:38:08;;;;;;;;;;;;;;;;;;5011458;28;19926;-82
2023/05/29 06:40:33;;;;;;;;;;;;;;;;;;5011184;28;19930;-84
2023/05/29 06:42:58;;;;;;;;;;;;;;;;;;5011331;28;19929;-82
2023/05/29 06:45:23;;;;;;;;;;;;;;;;;;4993199;28;20393;-82
2023/05/29 06:47:49;;;;;;;;;;;;;;;;;;4993988;28;19928;-84
2023/05/29 06:50:14;;;;;;;;;;;;;;;;;;5013392;28;19933;-84
2023/05/29 06:52:40;;;;;;;;;;;;;;;;;;5015367;28;19925;-82
2023/05/29 06:55:05;;;;;;;;;;;;;;;;;;5014642;28;20012;-83
2023/05/29 06:57:31;;;;;;;;;;;;;;;;;;5015618;28;19926;-84
2023/05/29 06:59:56;;;;;;;;;;;;;;;;;;5014950;28;19933;-82
2023/05/29 07:02:21;;;;;;;;;;;;;;;;;;5013882;28;19933;-84
2023/05/29 07:04:46;;;;;;;;;;;;;;;;;;5014997;28;19926;-83
2023/05/29 07:07:12;;;;;;;;;;;;;;;;;;5014827;28;20349;-84
2023/05/29 07:09:39;;;;;;;;;;;;;;;;;;5014903;28;20401;-84
2023/05/29 07:12:05;;;;;;;;;;;;;;;;;;5014320;28;19926;-83
2023/05/29 07:14:30;;;;;;;;;;;;;;;;;;5014823;28;20314;-82
2023/05/29 07:16:55;;;;;;;;;;;;;;;;;;5014432;28;19930;-83
2023/05/29 07:19:21;;;;;;;;;;;;;;;;;;5012388;28;19941;-84
2023/05/29 07:21:46;;;;;;;;;;;;;;;;;;5000220;28;19929;-84
2023/05/29 07:24:12;;;;;;;;;;;;;;;;;;5001667;28;20176;-84
2023/05/29 07:26:37;;;;;;;;;;;;;;;;;;5018223;28;20354;-84
2023/05/29 07:29:02;;;;;;;;;;;;;;;;;;5008200;28;19925;-84
2023/05/29 07:31:27;;;;;;;;;;;;;;;;;;5007178;28;19976;-84
2023/05/29 07:33:53;;;;;;;;;;;;;;;;;;5004194;28;20418;-85
2023/05/29 07:36:18;;;;;;;;;;;;;;;;;;5008168;28;19937;-83
2023/05/29 07:38:44;;;;;;;;;;;;;;;;;;5007848;28;19925;-84
2023/05/29 07:41:10;;;;;;;;;;;;;;;;;;5006720;28;20029;-83
2023/05/29 07:43:35;;;;;;;;;;;;;;;;;;5007743;28;20012;-83
2023/05/29 07:46:00;;;;;;;;;;;;;;;;;;5015074;28;19937;-85
2023/05/29 07:48:26;;;;;;;;;;;;;;;;;;5007470;28;20009;-84
2023/05/29 07:50:51;;;;;;;;;;;;;;;;;;5007368;28;19929;-83
2023/05/29 07:53:17;;;;;;;;;;;;;;;;;;5007473;28;19929;-84
2023/05/29 07:55:42;;;;;;;;;;;;;;;;;;5017910;28;19933;-84
2023/05/29 07:58:09;;;;;;;;;;;;;;;;;;5008277;28;19930;-86
2023/05/29 08:00:34;;;;;;;;;;;;;;;;;;5006080;28;19980;-84
2023/05/29 08:03:00;;;;;;;;;;;;;;;;;;4989106;28;20398;-84
2023/05/29 08:05:25;;;;;;;;;;;;;;;;;;4997521;28;19936;-83
2023/05/29 08:07:50;;;;;;;;;;;;;;;;;;5006458;28;19943;-84
2023/05/29 08:10:16;;;;;;;;;;;;;;;;;;5013358;28;19933;-85
2023/05/29 08:12:41;;;;;;;;;;;;;;;;;;5011138;28;20404;-83
2023/05/29 08:15:07;;;;;;;;;;;;;;;;;;5001188;28;19926;-86
2023/05/29 08:17:33;;;;;;;;;;;;;;;;;;5008050;28;20344;-85
2023/05/29 08:19:58;;;;;;;;;;;;;;;;;;5003711;28;19929;-86
2023/05/29 08:22:28;;;;;;;;;;;;;;;;;;5005777;28;20388;-83
2023/05/29 08:24:53;;;;;;;;;;;;;;;;;;5006465;28;19971;-84
2023/05/29 08:27:18;;;;;;;;;;;;;;;;;;5007369;28;20425;-84
2023/05/29 08:29:44;;;;;;;;;;;;;;;;;;5006490;28;20392;-87
2023/05/29 08:32:09;;;;;;;;;;;;;;;;;;5005804;28;19930;-84
2023/05/29 08:34:34;;;;;;;;;;;;;;;;;;5007992;28;19930;-84
2023/05/29 08:37:00;;;;;;;;;;;;;;;;;;5007014;28;19932;-85
2023/05/29 08:39:25;;;;;;;;;;;;;;;;;;5006248;28;19925;-84
2023/05/29 08:42:01;;;;;;;;;;;;;;;;;;5008220;28;20016;-84
2023/05/29 08:44:29;;;;;;;;;;;;;;;;;;5006776;28;19936;-84
2023/05/29 08:46:55;;;;;;;;;;;;;;;;;;5009626;28;19925;-85
2023/05/29 08:49:22;;;;;;;;;;;;;;;;;;5012999;28;20381;-83
2023/05/29 08:51:50;;;;;;;;;;;;;;;;;;4993803;28;19926;-82
2023/05/29 08:54:16;;;;;;;;;;;;;;;;;;5009586;28;20324;-83
2023/05/29 08:56:41;;;;;;;;;;;;;;;;;;5007085;28;19930;-83
2023/05/29 08:59:07;;;;;;;;;;;;;;;;;;5005377;28;20313;-83
2023/05/29 09:01:34;;;;;;;;;;;;;;;;;;5006501;28;19933;-85
2023/05/29 09:04:00;;;;;;;;;;;;;;;;;;5011521;28;19937;-84
2023/05/29 09:06:26;;;;;;;;;;;;;;;;;;5006754;28;19957;-86
2023/05/29 09:08:52;;;;;;;;;;;;;;;;;;5005805;28;19926;-85
2023/05/29 09:11:17;;;;;;;;;;;;;;;;;;5005095;28;20290;-84
2023/05/29 09:13:43;;;;;;;;;;;;;;;;;;5001689;28;19936;-86
2023/05/29 09:16:09;;;;;;;;;;;;;;;;;;5002061;28;19930;-85
2023/05/29 09:18:34;;;;;;;;;;;;;;;;;;5009611;28;20364;-83
2023/05/29 09:20:59;;;;;;;;;;;;;;;;;;5004570;28;19925;-83
2023/05/29 09:23:25;;;;;;;;;;;;;;;;;;5009531;28;19930;-83
2023/05/29 09:25:52;;;;;;;;;;;;;;;;;;4989422;28;19930;-88
2023/05/29 09:28:18;;;;;;;;;;;;;;;;;;5004368;28;19926;-83
2023/05/29 09:30:44;;;;;;;;;;;;;;;;;;4999704;28;19987;-84
2023/05/29 09:33:10;;;;;;;;;;;;;;;;;;4992116;28;19933;-83
2023/05/29 09:35:36;;;;;;;;;;;;;;;;;;4999405;28;19925;-87
2023/05/29 09:38:02;;;;;;;;;;;;;;;;;;5000753;28;20389;-82
2023/05/29 09:40:31;;;;;;;;;;;;;;;;;;5004160;28;19926;-81
2023/05/29 09:43:02;;;;;;;;;;;;;;;;;;5005241;28;19940;-82
2023/05/29 09:45:28;;;;;;;;;;;;;;;;;;5008636;28;19979;-83
2023/05/29 09:47:54;;;;;;;;;;;;;;;;;;5005132;28;20020;-84
2023/05/29 09:50:22;;;;;;;;;;;;;;;;;;5005725;28;19930;-83
2023/05/29 09:52:52;;;;;;;;;;;;;;;;;;5007296;28;19944;-82
2023/05/29 09:55:17;;;;;;;;;;;;;;;;;;5018091;28;19951;-84
2023/05/29 09:57:45;;;;;;;;;;;;;;;;;;4989542;28;19921;-81
2023/05/29 10:00:13;;;;;;;;;;;;;;;;;;5004955;28;20045;-82
2023/05/29 10:02:39;;;;;;;;;;;;;;;;;;5006382;28;19943;-82
2023/05/29 10:05:05;;;;;;;;;;;;;;;;;;4996531;28;20431;-81
2023/05/29 10:07:32;;;;;;;;;;;;;;;;;;5003154;28;19929;-82
2023/05/29 10:10:02;;;;;;;;;;;;;;;;;;5011784;28;19925;-81
2023/05/29 10:12:29;;;;;;;;;;;;;;;;;;5004519;28;20015;-82
2023/05/29 10:14:57;;;;;;;;;;;;;;;;;;5005103;28;19932;-82
2023/05/29 10:17:25;;;;;;;;;;;;;;;;;;4991510;28;19926;-81
2023/05/29 10:19:50;;;;;;;;;;;;;;;;;;5005499;28;19930;-83
2023/05/29 10:22:18;;;;;;;;;;;;;;;;;;5004075;28;19936;-82
2023/05/29 10:24:45;;;;;;;;;;;;;;;;;;5003136;28;19933;-81
2023/05/29 10:27:11;;;;;;;;;;;;;;;;;;5003716;28;19969;-83
2023/05/29 10:29:36;;;;;;;;;;;;;;;;;;5003762;28;19984;-84
2023/05/29 10:32:20;;;;;;;;;;;;;;;;;;5004532;28;19925;-83
2023/05/29 10:34:58;;;;;;;;;;;;;;;;;;5010054;28;19925;-85
2023/05/29 10:37:33;;;;;;;;;;;;;;;;;;5004354;28;19926;-82
2023/05/29 10:40:12;;;;;;;;;;;;;;;;;;5005615;28;19975;-85
2023/05/29 10:42:41;;;;;;;;;;;;;;;;;;5004474;28;19961;-85
2023/05/29 10:45:07;;;;;;;;;;;;;;;;;;5016115;28;19929;-86
2023/05/29 10:47:32;;;;;;;;;;;;;;;;;;5011442;28;20442;-88
2023/05/29 10:50:01;;;;;;;;;;;;;;;;;;5005303;28;20384;-89
2023/05/29 10:52:30;;;;;;;;;;;;;;;;;;5001152;28;19929;-87
2023/05/29 10:54:56;;;;;;;;;;;;;;;;;;5007195;28;19972;-89
2023/05/29 10:57:22;;;;;;;;;;;;;;;;;;5004791;28;19941;-86
2023/05/29 10:59:48;;;;;;;;;;;;;;;;;;5004908;28;19933;-89
2023/05/29 11:02:22;;;;;;;;;;;;;;;;;;5010106;28;20025;-87
2023/05/29 11:05:03;;;;;;;;;;;;;;;;;;5006882;28;19930;-90
2023/05/29 11:07:32;;;;;;;;;;;;;;;;;;5009602;28;20368;-88
2023/05/29 11:10:10;;;;;;;;;;;;;;;;;;5004640;28;20000;-86
2023/05/29 11:12:55;;;;;;;;;;;;;;;;;;5009809;28;20469;-89
2023/05/29 11:15:20;;;;;;;;;;;;;;;;;;5005031;28;19930;-87
2023/05/29 11:17:46;;;;;;;;;;;;;;;;;;5005663;28;19988;-90
2023/05/29 11:20:20;;;;;;;;;;;;;;;;;;5008470;28;19929;-92
2023/05/29 11:22:48;;;;;;;;;;;;;;;;;;5006980;28;19925;-90
2023/05/29 11:25:15;;;;;;;;;;;;;;;;;;5009250;28;19932;-89
2023/05/29 11:27:40;;;;;;;;;;;;;;;;;;5009544;28;20013;-87
2023/05/29 11:30:06;;;;;;;;;;;;;;;;;;5010273;28;20024;-85
2023/05/29 11:32:34;;;;;;;;;;;;;;;;;;5011587;28;19980;-87
2023/05/29 11:35:01;;;;;;;;;;;;;;;;;;5012393;28;19935;-83
2023/05/29 11:37:26;;;;;;;;;;;;;;;;;;5013421;28;19929;-87
2023/05/29 11:39:51;;;;;;;;;;;;;;;;;;5015762;28;19979;-86
2023/05/29 11:42:16;;;;;;;;;;;;;;;;;;5025709;28;20008;-86
2023/05/29 11:44:42;;;;;;;;;;;;;;;;;;5017756;28;19995;-86
2023/05/29 11:47:07;;;;;;;;;;;;;;;;;;5014128;28;20412;-85
2023/05/29 11:49:33;;;;;;;;;;;;;;;;;;5014728;28;19936;-86
2023/05/29 11:52:05;;;;;;;;;;;;;;;;;;5017555;28;20428;-87
2023/05/29 11:54:32;;;;;;;;;;;;;;;;;;5025737;28;20020;-86
2023/05/29 11:56:57;;;;;;;;;;;;;;;;;;4997304;28;19936;-86
2023/05/29 11:59:23;;;;;;;;;;;;;;;;;;5015271;28;19921;-87
2023/05/29 12:01:48;;;;;;;;;;;;;;;;;;5025032;28;19925;-90
2023/05/29 12:04:14;;;;;;;;;;;;;;;;;;5024147;28;19932;-86
2023/05/29 12:06:42;;;;;;;;;;;;;;;;;;5023069;28;20313;-86
2023/05/29 12:09:07;;;;;;;;;;;;;;;;;;5034119;28;19971;-87
2023/05/29 12:11:34;;;;;;;;;;;;;;;;;;5017850;28;20393;-87
2023/05/29 12:14:00;;;;;;;;;;;;;;;;;;5013624;28;19936;-81
2023/05/29 12:16:27;;;;;;;;;;;;;;;;;;5010595;28;19933;-80
2023/05/29 12:18:53;;;;;;;;;;;;;;;;;;4995150;28;19957;-81
2023/05/29 12:21:20;;;;;;;;;;;;;;;;;;4995140;28;19936;-79
2023/05/29 12:23:45;;;;;;;;;;;;;;;;;;5004648;28;20029;-79
2023/05/29 12:26:10;;;;;;;;;;;;;;;;;;5000967;28;20016;-79
2023/05/29 12:28:41;;;;;;;;;;;;;;;;;;5002351;28;19929;-80
2023/05/29 12:31:07;;;;;;;;;;;;;;;;;;4998359;28;19965;-78
2023/05/29 12:33:33;;;;;;;;;;;;;;;;;;4996158;28;20450;-80
2023/05/29 12:36:06;;;;;;;;;;;;;;;;;;4994428;28;20028;-81
2023/05/29 12:38:31;;;;;;;;;;;;;;;;;;4987897;28;19930;-81
2023/05/29 12:40:57;;;;;;;;;;;;;;;;;;4998617;28;19932;-80
2023/05/29 12:43:22;;;;;;;;;;;;;;;;;;4995689;28;19925;-80
2023/05/29 12:45:54;;;;;;;;;;;;;;;;;;5006690;28;19929;-81
2023/05/29 12:48:21;;;;;;;;;;;;;;;;;;4995496;28;20389;-79
2023/05/29 12:50:48;;;;;;;;;;;;;;;;;;4996133;28;19957;-80
2023/05/29 12:53:14;;;;;;;;;;;;;;;;;;4999237;28;19930;-80
2023/05/29 12:55:41;;;;;;;;;;;;;;;;;;4997752;28;19926;-81
2023/05/29 12:58:13;;;;;;;;;;;;;;;;;;5002227;28;19933;-81
2023/05/29 13:00:39;;;;;;;;;;;;;;;;;;5000704;28;19925;-80
2023/05/29 13:03:05;;;;;;;;;;;;;;;;;;5006187;28;19983;-80
2023/05/29 13:05:31;;;;;;;;;;;;;;;;;;4993816;28;19937;-81
2023/05/29 13:07:56;;;;;;;;;;;;;;;;;;5001106;28;19938;-81
2023/05/29 13:10:22;;;;;;;;;;;;;;;;;;5001216;28;20044;-80
2023/05/29 13:12:53;;;;;;;;;;;;;;;;;;4996219;28;19929;-80
2023/05/29 13:15:19;;;;;;;;;;;;;;;;;;4991512;28;19937;-80
2023/05/29 13:17:44;;;;;;;;;;;;;;;;;;4995770;28;19925;-80
2023/05/29 13:20:10;;;;;;;;;;;;;;;;;;4990851;28;20023;-80
2023/05/29 13:22:36;;;;;;;;;;;;;;;;;;4992685;28;20335;-80
2023/05/29 13:25:01;;;;;;;;;;;;;;;;;;5000773;28;20524;-80
2023/05/29 13:27:26;;;;;;;;;;;;;;;;;;4999730;28;20280;-80
2023/05/29 13:29:52;;;;;;;;;;;;;;;;;;4996758;28;19937;-80
2023/05/29 13:32:17;;;;;;;;;;;;;;;;;;4997852;28;19933;-80
2023/05/29 13:34:43;;;;;;;;;;;;;;;;;;4991477;28;19936;-82
2023/05/29 13:37:08;;;;;;;;;;;;;;;;;;5002615;28;19930;-81
2023/05/29 13:39:33;;;;;;;;;;;;;;;;;;5004121;28;20436;-79
2023/05/29 13:42:00;;;;;;;;;;;;;;;;;;5003648;28;19933;-80
2023/05/29 13:44:25;;;;;;;;;;;;;;;;;;5004063;28;20317;-78
2023/05/29 13:46:50;;;;;;;;;;;;;;;;;;5004714;28;19929;-80
2023/05/29 13:49:16;;;;;;;;;;;;;;;;;;5009131;28;19940;-80
2023/05/29 13:51:41;;;;;;;;;;;;;;;;;;5004697;28;19937;-81
2023/05/29 13:54:07;;;;;;;;;;;;;;;;;;5002615;28;19933;-79
2023/05/29 13:56:32;;;;;;;;;;;;;;;;;;5007860;28;20892;-82
2023/05/29 13:59:03;;;;;;;;;;;;;;;;;;5007562;28;19988;-80
2023/05/29 14:01:28;;;;;;;;;;;;;;;;;;5000378;28;20543;-79
2023/05/29 14:03:54;;;;;;;;;;;;;;;;;;5001841;28;19937;-84
2023/05/29 14:06:19;;;;;;;;;;;;;;;;;;5002356;28;20409;-80
2023/05/29 14:08:44;;;;;;;;;;;;;;;;;;4998248;28;19934;-81
2023/05/29 14:11:10;;;;;;;;;;;;;;;;;;5000306;28;19929;-79
2023/05/29 14:13:35;;;;;;;;;;;;;;;;;;4985633;28;20465;-78
2023/05/29 14:16:00;;;;;;;;;;;;;;;;;;4996560;28;19929;-80
2023/05/29 14:18:25;;;;;;;;;;;;;;;;;;5001065;28;19929;-78
2023/05/29 14:20:51;;;;;;;;;;;;;;;;;;5002759;28;19929;-79
2023/05/29 14:23:16;;;;;;;;;;;;;;;;;;5002799;28;19933;-79
2023/05/29 14:25:41;;;;;;;;;;;;;;;;;;5003451;28;19926;-81
2023/05/29 14:28:07;;;;;;;;;;;;;;;;;;5000031;28;20397;-81
2023/05/29 14:30:32;;;;;;;;;;;;;;;;;;5001602;28;20079;-79
2023/05/29 14:32:57;;;;;;;;;;;;;;;;;;5005326;28;19929;-80
2023/05/29 14:35:23;;;;;;;;;;;;;;;;;;5003986;28;20016;-80
2023/05/29 14:37:48;;;;;;;;;;;;;;;;;;5004836;28;19926;-81
2023/05/29 14:40:13;;;;;;;;;;;;;;;;;;5004076;28;19925;-80
2023/05/29 14:42:39;;;;;;;;;;;;;;;;;;5004979;28;20408;-80
2023/05/29 14:45:04;;;;;;;;;;;;;;;;;;5003703;28;19929;-81
2023/05/29 14:47:30;;;;;;;;;;;;;;;;;;5004107;28;19929;-80
2023/05/29 14:49:55;;;;;;;;;;;;;;;;;;5002821;28;19929;-81
2023/05/29 14:52:20;;;;;;;;;;;;;;;;;;5003039;28;19926;-81
2023/05/29 14:54:45;;;;;;;;;;;;;;;;;;5004641;28;19987;-79
2023/05/29 14:57:11;;;;;;;;;;;;;;;;;;5003326;28;20299;-80
2023/05/29 14:59:36;;;;;;;;;;;;;;;;;;5003813;28;19929;-80
2023/05/29 15:02:01;;;;;;;;;;;;;;;;;;5001609;28;19934;-80
2023/05/29 15:04:27;;;;;;;;;;;;;;;;;;5003970;28;19932;-79
2023/05/29 15:06:53;;;;;;;;;;;;;;;;;;5004572;28;19941;-80
2023/05/29 15:09:19;;;;;;;;;;;;;;;;;;5003450;28;19929;-81
2023/05/29 15:11:44;;;;;;;;;;;;;;;;;;5007035;28;20508;-81
2023/05/29 15:14:10;;;;;;;;;;;;;;;;;;5007095;28;20727;-80
2023/05/29 15:16:35;;;;;;;;;;;;;;;;;;5006937;28;20012;-84
2023/05/29 15:19:00;;;;;;;;;;;;;;;;;;5007887;28;20023;-78
2023/05/29 15:21:26;;;;;;;;;;;;;;;;;;5006893;28;19930;-80
2023/05/29 15:23:51;;;;;;;;;;;;;;;;;;5007405;28;19930;-80
2023/05/29 15:26:16;;;;;;;;;;;;;;;;;;5006951;28;20415;-81
2023/05/29 15:28:41;;;;;;;;;;;;;;;;;;5011934;28;19933;-81
2023/05/29 15:31:07;;;;;;;;;;;;;;;;;;5010990;28;20016;-80
2023/05/29 15:33:32;;;;;;;;;;;;;;;;;;4999518;28;19933;-79
2023/05/29 15:35:57;;;;;;;;;;;;;;;;;;5006944;28;19929;-82
2023/05/29 15:38:22;;;;;;;;;;;;;;;;;;5006991;28;19952;-80
2023/05/29 15:40:48;;;;;;;;;;;;;;;;;;5007190;28;19929;-79
2023/05/29 15:43:13;;;;;;;;;;;;;;;;;;5005980;28;19976;-80
2023/05/29 15:45:39;;;;;;;;;;;;;;;;;;5006927;28;19925;-79
2023/05/29 15:48:05;;;;;;;;;;;;;;;;;;5006713;28;19929;-80
2023/05/29 15:50:30;;;;;;;;;;;;;;;;;;5006914;28;19936;-82
2023/05/29 15:52:55;;;;;;;;;;;;;;;;;;5007107;28;19936;-82
2023/05/29 15:55:21;;;;;;;;;;;;;;;;;;5004790;28;19940;-80
2023/05/29 15:57:47;;;;;;;;;;;;;;;;;;5006100;28;19933;-80
2023/05/29 16:00:13;;;;;;;;;;;;;;;;;;5005085;28;19955;-81
2023/05/29 16:02:39;;;;;;;;;;;;;;;;;;4994808;28;19983;-80
2023/05/29 16:05:04;;;;;;;;;;;;;;;;;;4998536;28;20417;-80
2023/05/29 16:07:30;;;;;;;;;;;;;;;;;;5005362;28;20372;-81
2023/05/29 16:09:55;;;;;;;;;;;;;;;;;;5004750;28;19929;-80
2023/05/29 16:12:21;;;;;;;;;;;;;;;;;;5004992;28;20405;-82
2023/05/29 16:14:47;;;;;;;;;;;;;;;;;;5004238;28;19929;-81
2023/05/29 16:17:13;;;;;;;;;;;;;;;;;;5000674;28;20012;-82
2023/05/29 16:19:39;;;;;;;;;;;;;;;;;;4998400;28;20004;-78
2023/05/29 16:22:05;;;;;;;;;;;;;;;;;;4992438;28;20576;-79
2023/05/29 16:24:30;;;;;;;;;;;;;;;;;;5005204;28;20008;-81
2023/05/29 16:26:55;;;;;;;;;;;;;;;;;;5004378;28;20457;-80
2023/05/29 16:29:21;;;;;;;;;;;;;;;;;;5004800;28;19937;-80
2023/05/29 16:31:46;;;;;;;;;;;;;;;;;;5004659;28;19933;-79
2023/05/29 16:34:11;;;;;;;;;;;;;;;;;;5004475;28;19929;-80
2023/05/29 16:36:37;;;;;;;;;;;;;;;;;;5006138;28;19930;-78
2023/05/29 16:39:03;;;;;;;;;;;;;;;;;;5016220;28;20431;-80
2023/05/29 16:41:29;;;;;;;;;;;;;;;;;;5006189;28;19940;-80
2023/05/29 16:43:54;;;;;;;;;;;;;;;;;;5006521;28;19930;-81
2023/05/29 16:46:19;;;;;;;;;;;;;;;;;;4986497;28;19929;-81
2023/05/29 16:48:45;;;;;;;;;;;;;;;;;;5005780;28;19929;-80
2023/05/29 16:51:10;;;;;;;;;;;;;;;;;;5004064;28;19925;-78
2023/05/29 16:53:36;;;;;;;;;;;;;;;;;;5004335;28;19929;-80
2023/05/29 16:56:02;;;;;;;;;;;;;;;;;;5005194;28;20024;-81
2023/05/29 16:58:27;;;;;;;;;;;;;;;;;;5005083;28;20016;-80
2023/05/29 17:00:52;;;;;;;;;;;;;;;;;;5000655;28;19937;-79
2023/05/29 17:03:18;;;;;;;;;;;;;;;;;;5005403;28;19929;-80
2023/05/29 17:05:45;;;;;;;;;;;;;;;;;;5005730;28;19937;-80
2023/05/29 17:08:10;;;;;;;;;;;;;;;;;;5004833;28;19951;-80
2023/05/29 17:10:36;;;;;;;;;;;;;;;;;;4999792;28;20705;-80
2023/05/29 17:13:01;;;;;;;;;;;;;;;;;;5004793;28;20397;-80
2023/05/29 17:15:31;;;;;;;;;;;;;;;;;;4987686;28;19929;-82
2023/05/29 17:17:57;;;;;;;;;;;;;;;;;;5005626;28;19925;-79
2023/05/29 17:20:22;;;;;;;;;;;;;;;;;;5004838;28;19929;-81
2023/05/29 17:22:48;;;;;;;;;;;;;;;;;;5005239;28;19925;-79
2023/05/29 17:25:13;;;;;;;;;;;;;;;;;;5004400;28;20133;-81
2023/05/29 17:27:38;;;;;;;;;;;;;;;;;;5005483;28;20016;-78
2023/05/29 17:30:04;;;;;;;;;;;;;;;;;;5005229;28;19932;-80
2023/05/29 17:32:30;;;;;;;;;;;;;;;;;;4996235;28;19997;-80
2023/05/29 17:34:55;;;;;;;;;;;;;;;;;;5005485;28;19930;-82
2023/05/29 17:37:20;;;;;;;;;;;;;;;;;;5008601;28;19929;-80
2023/05/29 17:39:45;;;;;;;;;;;;;;;;;;5012568;28;20317;-82
2023/05/29 17:42:11;;;;;;;;;;;;;;;;;;5015106;28;19925;-79
2023/05/29 17:44:36;;;;;;;;;;;;;;;;;;5004439;28;20406;-81
2023/05/29 17:47:01;;;;;;;;;;;;;;;;;;5004650;28;19929;-81
2023/05/29 17:49:27;;;;;;;;;;;;;;;;;;5005766;28;19964;-79
2023/05/29 17:51:52;;;;;;;;;;;;;;;;;;5004219;28;19936;-82
2023/05/29 17:54:17;;;;;;;;;;;;;;;;;;5004149;28;20313;-81
2023/05/29 17:56:43;;;;;;;;;;;;;;;;;;5006430;28;19956;-82
2023/05/29 17:59:09;;;;;;;;;;;;;;;;;;5004206;28;19929;-80
2023/05/29 18:01:34;;;;;;;;;;;;;;;;;;4994836;28;19929;-80
2023/05/29 18:04:01;;;;;;;;;;;;;;;;;;4988891;28;20505;-79
2023/05/29 18:06:27;;;;;;;;;;;;;;;;;;5004413;28;19980;-80
2023/05/29 18:08:52;;;;;;;;;;;;;;;;;;5004939;28;19998;-81
2023/05/29 18:11:20;;;;;;;;;;;;;;;;;;5003555;28;19976;-82
2023/05/29 18:13:45;;;;;;;;;;;;;;;;;;5007711;28;19999;-80
2023/05/29 18:16:11;;;;;;;;;;;;;;;;;;5008687;28;19925;-79
2023/05/29 18:18:36;;;;;;;;;;;;;;;;;;5011835;28;19929;-80
2023/05/29 18:21:01;;;;;;;;;;;;;;;;;;5011381;28;19982;-79
2023/05/29 18:23:28;;;;;;;;;;;;;;;;;;5003935;28;19929;-81
2023/05/29 18:25:53;;;;;;;;;;;;;;;;;;5007129;28;19936;-81
2023/05/29 18:28:18;;;;;;;;;;;;;;;;;;5014774;28;19926;-82
2023/05/29 18:30:44;;;;;;;;;;;;;;;;;;5004358;28;19930;-81
2023/05/29 18:33:09;;;;;;;;;;;;;;;;;;5002530;28;19930;-83
2023/05/29 18:35:34;;;;;;;;;;;;;;;;;;5007246;28;19929;-80
2023/05/29 18:38:00;;;;;;;;;;;;;;;;;;5017883;28;20024;-80
2023/05/29 18:40:25;;;;;;;;;;;;;;;;;;5011760;28;20440;-79
2023/05/29 18:42:50;;;;;;;;;;;;;;;;;;5004292;28;19929;-80
2023/05/29 18:45:16;;;;;;;;;;;;;;;;;;5004732;28;19936;-81
2023/05/29 18:47:41;;;;;;;;;;;;;;;;;;5007518;28;20714;-80
2023/05/29 18:50:07;;;;;;;;;;;;;;;;;;4997845;28;19965;-79
2023/05/29 18:52:34;;;;;;;;;;;;;;;;;;5002097;28;19930;-80
2023/05/29 18:54:59;;;;;;;;;;;;;;;;;;4990328;28;20404;-80
2023/05/29 18:57:25;;;;;;;;;;;;;;;;;;5004089;28;19930;-81
2023/05/29 18:59:52;;;;;;;;;;;;;;;;;;4994928;28;20017;-80
2023/05/29 19:02:18;;;;;;;;;;;;;;;;;;5002722;28;19936;-79
2023/05/29 19:04:43;;;;;;;;;;;;;;;;;;5010537;28;19925;-80
2023/05/29 19:07:08;;;;;;;;;;;;;;;;;;5020114;28;19987;-80
2023/05/29 19:09:34;;;;;;;;;;;;;;;;;;5011139;28;19946;-80
2023/05/29 19:11:59;;;;;;;;;;;;;;;;;;4995580;28;19933;-81
2023/05/29 19:14:24;;;;;;;;;;;;;;;;;;5007929;28;20012;-81
2023/05/29 19:16:50;;;;;;;;;;;;;;;;;;5009265;28;20389;-78
2023/05/29 19:19:15;;;;;;;;;;;;;;;;;;5009262;28;19929;-79
2023/05/29 19:21:41;;;;;;;;;;;;;;;;;;4997134;28;20393;-80
2023/05/29 19:24:06;;;;;;;;;;;;;;;;;;5001859;28;19934;-82
2023/05/29 19:26:33;;;;;;;;;;;;;;;;;;5007163;28;19932;-80
2023/05/29 19:28:59;;;;;;;;;;;;;;;;;;4989422;28;19937;-81
2023/05/29 19:31:26;;;;;;;;;;;;;;;;;;5009080;28;19929;-81
2023/05/29 19:33:51;;;;;;;;;;;;;;;;;;5016353;28;20397;-82
2023/05/29 19:36:16;;;;;;;;;;;;;;;;;;5006861;28;19936;-81
2023/05/29 19:38:42;;;;;;;;;;;;;;;;;;5011128;28;19926;-81
2023/05/29 19:41:07;;;;;;;;;;;;;;;;;;5019418;28;19965;-81
2023/05/29 19:43:32;;;;;;;;;;;;;;;;;;5012737;28;20408;-79
2023/05/29 19:45:57;;;;;;;;;;;;;;;;;;5009406;28;19932;-78
2023/05/29 19:48:23;;;;;;;;;;;;;;;;;;5015104;28;19938;-79
2023/05/29 19:50:48;;;;;;;;;;;;;;;;;;5008067;28;20033;-80
2023/05/29 19:53:14;;;;;;;;;;;;;;;;;;5005967;28;20015;-80
2023/05/29 19:55:40;;;;;;;;;;;;;;;;;;5008316;28;20013;-79
2023/05/29 19:58:05;;;;;;;;;;;;;;;;;;5002238;28;20360;-78
2023/05/29 20:00:30;;;;;;;;;;;;;;;;;;4988103;28;20078;-79
2023/05/29 20:02:56;;;;;;;;;;;;;;;;;;4986286;28;19934;-79
2023/05/29 20:05:21;;;;;;;;;;;;;;;;;;4996184;28;19929;-79
2023/05/29 20:07:46;;;;;;;;;;;;;;;;;;5012032;28;19935;-80
2023/05/29 20:10:12;;;;;;;;;;;;;;;;;;4995264;28;19968;-79
2023/05/29 20:12:37;;;;;;;;;;;;;;;;;;4996542;28;20050;-80
2023/05/29 20:15:02;;;;;;;;;;;;;;;;;;4987963;28;19956;-81
2023/05/29 20:17:27;;;;;;;;;;;;;;;;;;4995164;28;19929;-81
2023/05/29 20:19:54;;;;;;;;;;;;;;;;;;4990549;28;20024;-79
2023/05/29 20:22:19;;;;;;;;;;;;;;;;;;4989936;28;19926;-79
2023/05/29 20:24:45;;;;;;;;;;;;;;;;;;4975964;28;19936;-81
2023/05/29 20:27:10;;;;;;;;;;;;;;;;;;5004431;28;19936;-81
2023/05/29 20:29:36;;;;;;;;;;;;;;;;;;5019858;28;19925;-81
2023/05/29 20:32:01;;;;;;;;;;;;;;;;;;5004422;28;19929;-81
2023/05/29 20:34:27;;;;;;;;;;;;;;;;;;5005616;28;20013;-79
2023/05/29 20:36:53;;;;;;;;;;;;;;;;;;5005798;28;20089;-83
2023/05/29 20:39:21;;;;;;;;;;;;;;;;;;5006221;28;19954;-80
2023/05/29 20:41:48;;;;;;;;;;;;;;;;;;4991855;28;20044;-80
2023/05/29 20:44:14;;;;;;;;;;;;;;;;;;4985164;28;19926;-81
2023/05/29 20:46:39;;;;;;;;;;;;;;;;;;4993619;28;19929;-80
2023/05/29 20:49:05;;;;;;;;;;;;;;;;;;4984882;28;20533;-82
2023/05/29 20:51:31;;;;;;;;;;;;;;;;;;4990145;28;20056;-82
2023/05/29 20:53:57;;;;;;;;;;;;;;;;;;4987520;28;19933;-79
2023/05/29 20:56:22;;;;;;;;;;;;;;;;;;5002052;28;19926;-81
2023/05/29 20:58:48;;;;;;;;;;;;;;;;;;4991244;28;19941;-80
2023/05/29 21:01:14;;;;;;;;;;;;;;;;;;4996462;28;19934;-80
2023/05/29 21:03:40;;;;;;;;;;;;;;;;;;4985926;28;19930;-83
2023/05/29 21:06:08;;;;;;;;;;;;;;;;;;5003607;28;19937;-78
2023/05/29 21:08:34;;;;;;;;;;;;;;;;;;5004234;28;20545;-80
2023/05/29 21:10:59;;;;;;;;;;;;;;;;;;5004994;28;20041;-79
2023/05/29 21:13:25;;;;;;;;;;;;;;;;;;5004765;28;20772;-81
2023/05/29 21:15:50;;;;;;;;;;;;;;;;;;5004931;28;19929;-81
2023/05/29 21:18:15;;;;;;;;;;;;;;;;;;5007688;28;19925;-83
2023/05/29 21:20:41;;;;;;;;;;;;;;;;;;5004618;28;19930;-84
2023/05/29 21:23:06;;;;;;;;;;;;;;;;;;5004735;28;20405;-82
2023/05/29 21:25:31;;;;;;;;;;;;;;;;;;5005325;28;19930;-83
2023/05/29 21:27:57;;;;;;;;;;;;;;;;;;5005436;28;19933;-83
2023/05/29 21:30:22;;;;;;;;;;;;;;;;;;5004496;28;20049;-83
2023/05/29 21:32:48;;;;;;;;;;;;;;;;;;5004813;28;19979;-82
2023/05/29 21:35:14;;;;;;;;;;;;;;;;;;5009685;28;19929;-82
2023/05/29 21:37:39;;;;;;;;;;;;;;;;;;5010241;28;19926;-81
2023/05/29 21:40:08;;;;;;;;;;;;;;;;;;5004029;28;19933;-82
2023/05/29 21:42:33;;;;;;;;;;;;;;;;;;5001949;28;19934;-81
2023/05/29 21:44:59;;;;;;;;;;;;;;;;;;5002241;28;20428;-81
2023/05/29 21:47:24;;;;;;;;;;;;;;;;;;5001551;28;19929;-81
2023/05/29 21:49:49;;;;;;;;;;;;;;;;;;5001342;28;19930;-81
2023/05/29 21:52:15;;;;;;;;;;;;;;;;;;5001953;28;20325;-81
2023/05/29 21:54:41;;;;;;;;;;;;;;;;;;5005241;28;20020;-83
2023/05/29 21:57:07;;;;;;;;;;;;;;;;;;5001582;28;20016;-80
2023/05/29 21:59:32;;;;;;;;;;;;;;;;;;5001065;28;19965;-80
2023/05/29 22:01:59;;;;;;;;;;;;;;;;;;5000969;28;19992;-80
2023/05/29 22:04:24;;;;;;;;;;;;;;;;;;5006066;28;19929;-81
2023/05/29 22:06:49;;;;;;;;;;;;;;;;;;4994148;28;19926;-81
2023/05/29 22:09:15;;;;;;;;;;;;;;;;;;5008292;28;19939;-80
2023/05/29 22:11:41;;;;;;;;;;;;;;;;;;5002964;28;20150;-80
2023/05/29 22:14:06;;;;;;;;;;;;;;;;;;5001279;28;19933;-79
2023/05/29 22:16:32;;;;;;;;;;;;;;;;;;5001009;28;20074;-80
2023/05/29 22:18:58;;;;;;;;;;;;;;;;;;5001400;28;19934;-80
2023/05/29 22:21:24;;;;;;;;;;;;;;;;;;5000176;28;19963;-80
2023/05/29 22:23:50;;;;;;;;;;;;;;;;;;5001670;28;20274;-80
2023/05/29 22:26:15;;;;;;;;;;;;;;;;;;4983898;28;19940;-80
2023/05/29 22:28:40;;;;;;;;;;;;;;;;;;5001343;28;19933;-80
2023/05/29 22:31:06;;;;;;;;;;;;;;;;;;5003688;28;19925;-80
2023/05/29 22:33:32;;;;;;;;;;;;;;;;;;4983053;28;20417;-80
2023/05/29 22:35:57;;;;;;;;;;;;;;;;;;5000894;28;19984;-80
2023/05/29 22:38:22;;;;;;;;;;;;;;;;;;5000721;28;20052;-80